Главная страница
METAR-TAF:

METAR-TAF

Аэропорты :

Вардё, Норвегия

широта: 70-21N, долгота: 031-03E, высота над уровнем моря: 12 м

Текущие метеонаблюдения

Эта сводка был подготовлена 7 часа и 20 минут назад, в 19:50 UTC
Ветер 17 Узел от южный
Температура 13°C
Влажность 67%
Давление 1012 hPa
Видимость 10 км и более
Рассеянная облачность на высоте 7000 фута
небольшие ливневые дожди

METAR: ENSS 161950Z 18017KT 9999 -SHRA BKN070 13/07 Q1012 RMK WIND 500FT 19018KT

Время: 05:10 (03:10 UTC)


TAF: отсутствует

Метеонаблюдения и прогнозы для более 4000 аэропортов (сводки METAR и TAF).

Имеющиеся станции представлены на карте желтыми и красными точками.

Чтобы увидеть название станции, наведите на нее мышь.

Затем щелкните, чтобы увидеть метеонаблюдения и метеопрогнозы.

Управление картой: чтобы увеличить масштаб, щелкните зеленые кнопки с черным крестиком; чтобы уменьшить масштаб, щелкните зеленую кнопку с тире; для просмотра соседних карт щелкайте зеленые стрелки.


METAR-TAF: